Time;durP1;ratioP1;P1;durP2;ratioP2;P2;SDS_P1;SDS_P2;PMS_P1;PMS_P2;Temp;Humidity;BMP_temperature;BMP_pressure;BME280_temperature;BME280_humidity;BME280_pressure;Samples;Min_cycle;Max_cycle;Signal;HPM_P1;HPM_P2
2023/12/18 00:02:51;;;;;;;8.43;4.30;;;;;;;5.92;100.00;102463.53;6094754;28;20492;-74
2023/12/18 00:05:47;;;;;;;8.98;4.05;;;;;;;5.88;100.00;102468.06;6078147;28;20029;-74
2023/12/18 00:08:44;;;;;;;9.80;4.43;;;;;;;5.87;100.00;102473.44;6077137;28;20037;-73
2023/12/18 00:11:39;;;;;;;7.28;3.50;;;;;;;5.88;100.00;102481.25;6075937;28;20040;-74
2023/12/18 00:14:36;;;;;;;9.03;3.70;;;;;;;5.78;100.00;102479.09;6094791;28;20372;-72
2023/12/18 00:17:32;;;;;;;7.10;3.72;;;;;;;5.82;100.00;102486.75;6096176;28;20032;-74
2023/12/18 00:20:28;;;;;;;8.75;4.00;;;;;;;5.71;100.00;102478.50;6078546;28;20060;-74
2023/12/18 00:23:24;;;;;;;9.70;4.00;;;;;;;5.77;100.00;102483.50;6081714;28;20121;-73
2023/12/18 00:26:20;;;;;;;8.77;3.38;;;;;;;5.72;100.00;102463.56;6097791;28;20083;-73
2023/12/18 00:29:16;;;;;;;8.23;3.90;;;;;;;5.66;100.00;102472.59;6084051;28;20025;-74
2023/12/18 00:32:12;;;;;;;9.88;4.38;;;;;;;5.64;100.00;102466.56;6063208;28;20027;-74
2023/12/18 00:35:08;;;;;;;10.10;4.45;;;;;;;5.56;100.00;102457.31;6100712;28;20476;-74
2023/12/18 00:38:03;;;;;;;9.25;4.25;;;;;;;5.49;100.00;102451.47;6099102;28;20025;-73
2023/12/18 00:41:00;;;;;;;7.87;4.00;;;;;;;5.59;100.00;102468.56;6103047;28;20032;-74
2023/12/18 00:43:55;;;;;;;11.85;4.68;;;;;;;5.57;100.00;102474.81;6068418;28;20025;-74
2023/12/18 00:46:51;;;;;;;10.88;3.90;;;;;;;5.51;100.00;102470.69;6080679;28;20502;-73
2023/12/18 00:49:46;;;;;;;10.23;4.70;;;;;;;5.55;100.00;102481.91;6103346;28;20059;-74
2023/12/18 00:52:42;;;;;;;10.85;4.60;;;;;;;5.49;100.00;102485.66;6101891;28;20025;-73
2023/12/18 00:55:37;;;;;;;9.77;4.90;;;;;;;5.47;100.00;102482.25;6102744;28;20102;-74
2023/12/18 00:58:32;;;;;;;10.43;4.63;;;;;;;5.40;100.00;102476.44;6099951;28;20404;-73
2023/12/18 01:01:28;;;;;;;10.88;4.57;;;;;;;5.39;100.00;102485.25;6102777;28;20279;-74
2023/12/18 01:04:23;;;;;;;11.60;5.03;;;;;;;5.36;100.00;102481.91;6101267;28;20388;-72
2023/12/18 01:07:19;;;;;;;10.73;5.33;;;;;;;5.31;100.00;102470.75;6101354;28;20527;-73
2023/12/18 01:10:14;;;;;;;10.68;5.20;;;;;;;5.29;100.00;102464.69;6106055;28;20029;-73
2023/12/18 01:13:09;;;;;;;11.20;5.40;;;;;;;5.25;100.00;102478.88;6106098;28;20032;-73
2023/12/18 01:16:05;;;;;;;11.50;5.13;;;;;;;5.23;100.00;102475.47;6106718;28;20032;-73
2023/12/18 01:19:02;;;;;;;10.85;5.25;;;;;;;5.17;100.00;102473.13;6102628;28;20024;-74
2023/12/18 01:21:58;;;;;;;14.63;5.45;;;;;;;5.08;100.00;102461.22;6106551;28;20040;-73
2023/12/18 01:24:53;;;;;;;11.27;5.63;;;;;;;5.20;100.00;102476.47;6104398;28;20021;-73
2023/12/18 01:27:48;;;;;;;13.23;5.50;;;;;;;5.04;100.00;102469.34;6104723;28;20051;-73
2023/12/18 01:30:44;;;;;;;14.07;5.60;;;;;;;5.06;100.00;102470.97;6100185;28;20555;-72
2023/12/18 01:33:39;;;;;;;14.63;5.97;;;;;;;5.03;100.00;102472.91;6102472;28;20029;-73
2023/12/18 01:36:34;;;;;;;11.63;5.97;;;;;;;5.02;100.00;102481.69;6104705;28;20318;-73
2023/12/18 01:39:30;;;;;;;12.03;6.13;;;;;;;4.84;100.00;102462.31;6105622;28;20104;-72
2023/12/18 01:42:25;;;;;;;12.18;6.10;;;;;;;4.81;100.00;102468.56;6105013;28;20468;-73
2023/12/18 01:45:20;;;;;;;12.23;5.97;;;;;;;4.89;100.00;102477.91;6102050;28;20075;-73
2023/12/18 01:48:16;;;;;;;12.90;5.47;;;;;;;4.85;100.00;102489.44;6106261;28;20036;-73
2023/12/18 01:51:11;;;;;;;10.33;5.20;;;;;;;4.78;100.00;102476.56;6105011;28;20024;-73
2023/12/18 01:54:07;;;;;;;12.75;5.63;;;;;;;4.76;100.00;102482.81;6102753;28;20112;-72
2023/12/18 01:57:03;;;;;;;10.40;5.03;;;;;;;4.77;100.00;102485.38;6103449;28;20035;-73
2023/12/18 01:59:58;;;;;;;15.55;5.57;;;;;;;4.71;100.00;102472.50;6100205;28;20033;-73
2023/12/18 02:02:54;;;;;;;14.43;5.10;;;;;;;4.75;100.00;102476.72;6103869;28;20470;-73
2023/12/18 02:05:49;;;;;;;11.97;4.93;;;;;;;4.76;100.00;102486.28;6102202;28;20040;-73
2023/12/18 02:08:45;;;;;;;10.20;4.80;;;;;;;4.67;100.00;102475.34;6105574;28;20369;-74
2023/12/18 02:11:44;;;;;;;10.75;4.50;;;;;;;4.68;100.00;102467.38;6099984;28;20064;-74
2023/12/18 02:14:39;;;;;;;13.43;5.13;;;;;;;4.73;100.00;102452.25;6103716;28;20032;-74
2023/12/18 02:17:34;;;;;;;12.77;5.30;;;;;;;4.70;100.00;102449.75;6103152;28;20044;-74
2023/12/18 02:20:30;;;;;;;12.03;4.57;;;;;;;4.75;100.00;102453.06;6103158;28;20040;-72
2023/12/18 02:23:25;;;;;;;12.80;4.60;;;;;;;4.75;100.00;102439.94;6100470;28;20489;-72
2023/12/18 02:26:21;;;;;;;10.23;4.30;;;;;;;4.73;100.00;102431.25;6100251;28;20082;-73
2023/12/18 02:29:16;;;;;;;11.85;4.45;;;;;;;4.71;100.00;102425.22;6105022;28;20025;-73
2023/12/18 02:32:11;;;;;;;10.63;4.50;;;;;;;4.69;100.00;102432.31;6100147;28;20029;-72
2023/12/18 02:35:07;;;;;;;11.97;4.60;;;;;;;4.69;100.00;102437.56;6103970;28;20264;-74
2023/12/18 02:38:02;;;;;;;13.75;5.45;;;;;;;4.69;100.00;102440.19;6101958;28;20112;-73
2023/12/18 02:40:58;;;;;;;15.80;5.72;;;;;;;4.70;100.00;102444.50;6102272;28;20029;-73
2023/12/18 02:43:53;;;;;;;14.70;5.13;;;;;;;4.70;100.00;102422.66;6102312;28;20057;-73
2023/12/18 02:46:48;;;;;;;14.20;5.90;;;;;;;4.69;100.00;102424.44;6102594;28;20103;-73
2023/12/18 02:49:44;;;;;;;17.73;6.67;;;;;;;4.69;100.00;102437.56;6101969;28;20666;-73
2023/12/18 02:52:39;;;;;;;15.00;5.60;;;;;;;4.58;100.00;102421.41;6102639;28;20033;-74
2023/12/18 02:55:34;;;;;;;10.60;5.40;;;;;;;4.64;100.00;102429.03;6101472;28;20061;-74
2023/12/18 02:58:29;;;;;;;13.43;5.77;;;;;;;4.64;100.00;102444.78;6102670;28;20047;-73
2023/12/18 03:01:25;;;;;;;14.47;5.87;;;;;;;4.61;100.00;102431.78;6101055;28;20376;-73
2023/12/18 03:04:20;;;;;;;14.00;5.67;;;;;;;4.55;100.00;102429.41;6102475;28;20040;-73
2023/12/18 03:07:16;;;;;;;19.88;6.28;;;;;;;4.67;100.00;102443.81;6103152;28;20460;-73
2023/12/18 03:10:11;;;;;;;14.07;7.27;;;;;;;4.61;100.00;102429.16;6102087;28;20033;-73
2023/12/18 03:13:06;;;;;;;18.88;6.63;;;;;;;4.67;100.00;102413.09;6102289;28;20025;-73
2023/12/18 03:16:02;;;;;;;15.63;6.37;;;;;;;4.74;100.00;102417.19;6102573;28;20028;-73
2023/12/18 03:18:57;;;;;;;13.57;7.43;;;;;;;4.77;100.00;102429.34;6102397;28;20114;-73
2023/12/18 03:21:52;;;;;;;15.57;7.30;;;;;;;4.77;100.00;102417.06;6099636;28;20016;-73
2023/12/18 03:24:47;;;;;;;15.43;6.60;;;;;;;4.74;100.00;102425.09;6107949;28;20063;-73
2023/12/18 03:27:43;;;;;;;22.97;6.93;;;;;;;4.78;100.00;102417.94;6109167;28;20060;-73
2023/12/18 03:30:38;;;;;;;21.60;6.97;;;;;;;4.75;100.00;102420.69;6110235;28;20124;-73
2023/12/18 03:33:34;;;;;;;16.63;7.35;;;;;;;4.76;100.00;102425.00;6116075;28;20108;-72
2023/12/18 03:36:29;;;;;;;14.50;7.30;;;;;;;4.79;100.00;102433.63;6100505;28;20468;-73
2023/12/18 03:39:24;;;;;;;15.90;7.37;;;;;;;4.87;100.00;102445.56;6111612;28;20032;-73
2023/12/18 03:42:19;;;;;;;16.73;6.67;;;;;;;4.81;100.00;102418.63;6109692;28;20020;-73
2023/12/18 03:45:15;;;;;;;17.97;7.33;;;;;;;4.90;100.00;102427.03;6102602;28;20685;-73
2023/12/18 03:48:10;;;;;;;18.33;6.97;;;;;;;4.97;100.00;102420.59;6110363;28;20399;-72
2023/12/18 03:51:06;;;;;;;14.48;6.95;;;;;;;4.89;100.00;102415.69;6112239;28;20073;-72
2023/12/18 03:54:01;;;;;;;15.30;7.83;;;;;;;4.96;100.00;102432.88;6108549;28;20029;-73
2023/12/18 03:56:56;;;;;;;13.60;7.03;;;;;;;4.97;100.00;102428.47;6107847;28;20103;-72
2023/12/18 03:59:51;;;;;;;13.33;7.03;;;;;;;4.96;100.00;102411.00;6115166;28;20442;-73
2023/12/18 04:02:47;;;;;;;16.13;7.83;;;;;;;5.06;100.00;102428.03;6104608;28;20291;-73
2023/12/18 04:05:42;;;;;;;17.07;7.93;;;;;;;5.03;100.00;102418.53;6104618;28;20259;-72
2023/12/18 04:08:39;;;;;;;18.27;7.47;;;;;;;5.00;100.00;102418.66;6115121;28;20641;-72
2023/12/18 04:11:34;;;;;;;18.40;7.97;;;;;;;4.98;100.00;102412.63;6104542;28;20394;-73
2023/12/18 04:14:29;;;;;;;23.93;7.93;;;;;;;4.98;100.00;102401.25;6099149;28;20051;-73
2023/12/18 04:17:25;;;;;;;16.27;7.67;;;;;;;4.92;100.00;102407.63;6105479;28;20033;-72
2023/12/18 04:20:20;;;;;;;23.10;8.27;;;;;;;4.87;100.00;102401.72;6113975;28;20040;-74
2023/12/18 04:23:16;;;;;;;16.58;8.00;;;;;;;4.78;100.00;102408.25;6110765;28;20119;-74
2023/12/18 04:26:11;;;;;;;16.63;7.93;;;;;;;4.81;100.00;102417.75;6108480;28;20028;-74
2023/12/18 04:29:06;;;;;;;21.88;9.32;;;;;;;4.82;100.00;102417.72;6106035;28;20226;-74
2023/12/18 04:32:02;;;;;;;19.53;7.90;;;;;;;4.85;100.00;102423.75;6100077;28;20044;-73
2023/12/18 04:34:57;;;;;;;21.50;7.88;;;;;;;4.93;100.00;102425.13;6105372;28;20266;-74
2023/12/18 04:37:53;;;;;;;18.67;8.00;;;;;;;4.89;100.00;102422.72;6101114;28;20041;-74
2023/12/18 04:40:48;;;;;;;19.63;8.73;;;;;;;4.94;100.00;102426.84;6106370;28;20274;-73
2023/12/18 04:43:43;;;;;;;19.73;8.60;;;;;;;4.85;100.00;102423.75;6104771;28;20119;-74
2023/12/18 04:46:38;;;;;;;17.27;8.43;;;;;;;4.84;100.00;102425.50;6103021;28;20024;-74
2023/12/18 04:49:34;;;;;;;20.70;8.43;;;;;;;4.72;100.00;102420.81;6109421;28;20384;-72
2023/12/18 04:52:29;;;;;;;20.77;8.13;;;;;;;4.64;100.00;102423.78;6111894;28;20260;-72
2023/12/18 04:55:24;;;;;;;18.13;9.17;;;;;;;4.63;100.00;102429.94;6103293;28;20276;-73
2023/12/18 04:58:20;;;;;;;19.93;8.67;;;;;;;4.57;100.00;102427.56;6114613;28;20021;-72
2023/12/18 05:01:15;;;;;;;22.40;8.53;;;;;;;4.55;100.00;102434.66;6116042;28;20754;-73
2023/12/18 05:04:11;;;;;;;19.15;8.45;;;;;;;4.59;100.00;102430.97;6107059;28;20040;-72
2023/12/18 05:07:07;;;;;;;19.80;8.53;;;;;;;4.58;100.00;102417.94;6114942;28;20387;-73
2023/12/18 05:10:03;;;;;;;17.80;7.93;;;;;;;4.71;100.00;102442.75;6115232;28;20116;-72
2023/12/18 05:12:59;;;;;;;20.92;8.80;;;;;;;4.71;100.00;102430.47;6118697;28;20046;-74
2023/12/18 05:15:54;;;;;;;19.60;9.32;;;;;;;4.72;100.00;102426.06;6096483;28;20025;-75
2023/12/18 05:18:50;;;;;;;21.67;9.50;;;;;;;4.86;100.00;102449.97;6108804;28;20468;-74
2023/12/18 05:21:45;;;;;;;24.40;8.27;;;;;;;4.84;100.00;102445.72;6112895;28;20036;-73
2023/12/18 05:24:42;;;;;;;20.70;8.20;;;;;;;4.94;100.00;102444.38;6106814;28;20267;-74
2023/12/18 05:27:38;;;;;;;20.52;8.40;;;;;;;5.06;100.00;102443.81;6103054;28;20082;-72
2023/12/18 05:30:36;;;;;;;21.70;8.77;;;;;;;5.09;100.00;102434.03;6100498;28;20080;-73
2023/12/18 05:33:31;;;;;;;21.27;8.75;;;;;;;5.13;100.00;102429.50;6116374;28;20751;-73
2023/12/18 05:36:27;;;;;;;21.00;8.83;;;;;;;5.08;100.00;102428.84;6104818;28;20047;-73
2023/12/18 05:39:22;;;;;;;19.10;8.85;;;;;;;5.18;100.00;102430.13;6115057;28;20024;-74
2023/12/18 05:42:19;;;;;;;18.37;8.47;;;;;;;5.16;100.00;102426.75;6117166;28;20028;-74
2023/12/18 05:45:16;;;;;;;20.00;8.68;;;;;;;5.17;100.00;102436.31;6113753;28;20048;-74
2023/12/18 05:48:12;;;;;;;15.80;7.53;;;;;;;5.22;100.00;102422.03;6114930;28;20607;-74
2023/12/18 05:51:20;;;;;;;18.27;8.20;;;;;;;5.23;100.00;102438.66;6118486;28;20037;-73
2023/12/18 05:54:15;;;;;;;16.33;6.68;;;;;;;5.23;100.00;102434.28;6117264;28;20521;-74
2023/12/18 05:57:12;;;;;;;18.60;7.90;;;;;;;5.17;100.00;102420.53;6100325;28;20029;-72
2023/12/18 06:00:09;;;;;;;17.55;7.75;;;;;;;5.21;100.00;102422.13;6105701;28;20098;-72
2023/12/18 06:03:04;;;;;;;19.42;7.60;;;;;;;5.21;100.00;102440.53;6104823;28;20459;-73
2023/12/18 06:05:59;;;;;;;21.30;7.97;;;;;;;5.17;100.00;102428.41;6105375;28;20029;-74
2023/12/18 06:08:54;;;;;;;17.70;7.37;;;;;;;5.10;100.00;102432.25;6108891;28;20021;-73
2023/12/18 06:11:50;;;;;;;17.23;7.50;;;;;;;5.15;100.00;102436.41;6112842;28;20029;-74
2023/12/18 06:14:49;;;;;;;18.25;7.47;;;;;;;5.18;100.00;102441.53;6100576;28;20025;-74
2023/12/18 06:17:44;;;;;;;17.08;8.25;;;;;;;5.09;100.00;102435.81;6102155;28;20032;-72
2023/12/18 06:20:40;;;;;;;17.95;8.05;;;;;;;5.11;100.00;102436.59;6107905;28;20025;-72
2023/12/18 06:23:35;;;;;;;19.23;7.70;;;;;;;5.02;100.00;102422.09;6112430;28;20530;-73
2023/12/18 06:26:30;;;;;;;20.37;7.23;;;;;;;5.14;100.00;102449.59;6103376;28;20306;-73
2023/12/18 06:29:27;;;;;;;17.60;7.90;;;;;;;5.16;100.00;102453.88;6110512;28;20744;-73
2023/12/18 06:32:22;;;;;;;19.13;8.70;;;;;;;5.14;100.00;102470.63;6100312;28;20047;-73
2023/12/18 06:35:18;;;;;;;20.67;8.75;;;;;;;5.10;100.00;102472.56;6109042;28;20472;-74
2023/12/18 06:38:13;;;;;;;16.45;9.00;;;;;;;5.04;100.00;102462.31;6099928;28;20082;-73
2023/12/18 06:41:09;;;;;;;22.07;8.37;;;;;;;5.09;100.00;102469.97;6100752;28;20039;-73
2023/12/18 06:44:05;;;;;;;22.55;8.15;;;;;;;5.05;100.00;102471.06;6100479;28;20028;-75
2023/12/18 06:47:00;;;;;;;23.77;8.40;;;;;;;5.04;100.00;102469.34;6100524;28;20029;-72
2023/12/18 06:49:56;;;;;;;20.13;8.15;;;;;;;5.03;100.00;102462.38;6074383;28;20045;-73
2023/12/18 06:52:51;;;;;;;19.33;7.57;;;;;;;5.12;100.00;102467.22;6084293;28;20036;-72
2023/12/18 06:55:47;;;;;;;19.20;7.78;;;;;;;5.13;100.00;102471.56;6106788;28;20299;-72
2023/12/18 06:58:42;;;;;;;16.30;8.07;;;;;;;5.16;100.00;102468.81;6105058;28;20031;-72
2023/12/18 07:01:38;;;;;;;24.83;8.70;;;;;;;5.17;100.00;102467.88;6095802;28;20743;-73
2023/12/18 07:04:33;;;;;;;20.83;7.72;;;;;;;5.17;100.00;102473.13;6106060;28;20120;-72
2023/12/18 07:07:28;;;;;;;20.33;6.67;;;;;;;5.16;100.00;102460.91;6102272;28;20021;-73
2023/12/18 07:10:24;;;;;;;22.60;9.27;;;;;;;5.11;100.00;102460.28;6104687;28;20480;-74
2023/12/18 07:13:19;;;;;;;23.70;7.57;;;;;;;5.07;100.00;102463.94;6095217;28;20025;-73
2023/12/18 07:16:19;;;;;;;19.67;7.78;;;;;;;5.18;100.00;102472.22;6097899;28;20028;-74
2023/12/18 07:19:15;;;;;;;17.55;8.10;;;;;;;5.18;100.00;102474.84;6096835;28;20032;-74
2023/12/18 07:22:11;;;;;;;22.77;8.60;;;;;;;5.16;100.00;102476.69;6094710;28;20036;-73
2023/12/18 07:25:10;;;;;;;16.77;7.80;;;;;;;5.11;100.00;102466.34;6097741;28;20067;-72
2023/12/18 07:28:09;;;;;;;18.20;8.45;;;;;;;5.01;100.00;102449.28;6099803;28;20078;-73
2023/12/18 07:31:04;;;;;;;19.55;7.70;;;;;;;5.16;100.00;102460.91;6097271;28;20498;-73
2023/12/18 07:33:59;;;;;;;20.10;8.00;;;;;;;5.22;100.00;102464.09;6099406;28;20033;-74
2023/12/18 07:36:55;;;;;;;19.47;8.93;;;;;;;5.22;100.00;102466.75;6111618;28;20041;-72
2023/12/18 07:39:50;;;;;;;17.50;7.75;;;;;;;5.22;100.00;102479.03;6107620;28;20669;-73
2023/12/18 07:42:45;;;;;;;17.50;8.17;;;;;;;5.18;100.00;102464.31;6106439;28;20029;-73
2023/12/18 07:45:41;;;;;;;20.17;7.53;;;;;;;5.19;100.00;102455.53;6100826;28;20259;-72
2023/12/18 07:48:37;;;;;;;19.67;8.07;;;;;;;5.24;100.00;102462.28;6097938;28;20292;-73
2023/12/18 07:51:34;;;;;;;18.48;7.88;;;;;;;5.13;100.00;102453.16;6088836;28;20025;-74
2023/12/18 07:54:29;;;;;;;22.27;8.43;;;;;;;5.21;100.00;102461.56;6097936;28;20033;-72
2023/12/18 07:57:24;;;;;;;22.15;9.35;;;;;;;5.24;100.00;102466.69;6103637;28;20059;-72
2023/12/18 08:00:20;;;;;;;20.87;8.07;;;;;;;5.22;100.00;102468.50;6104154;28;20107;-73
2023/12/18 08:03:15;;;;;;;20.70;8.53;;;;;;;5.22;100.00;102473.78;6096926;28;20020;-73
2023/12/18 08:06:10;;;;;;;24.30;8.40;;;;;;;5.25;100.00;102486.78;6100057;28;20309;-72
2023/12/18 08:09:06;;;;;;;21.00;8.70;;;;;;;5.26;100.00;102473.59;6106555;28;20272;-73
2023/12/18 08:12:02;;;;;;;18.83;8.73;;;;;;;5.25;100.00;102484.16;6101763;28;20283;-72
2023/12/18 08:14:58;;;;;;;19.65;8.85;;;;;;;5.26;100.00;102493.75;6093626;28;20032;-71
2023/12/18 08:17:54;;;;;;;18.45;8.00;;;;;;;5.20;100.00;102476.47;6101719;28;20056;-72
2023/12/18 08:20:49;;;;;;;21.15;8.57;;;;;;;5.16;100.00;102468.81;6109231;28;20666;-72
2023/12/18 08:23:45;;;;;;;24.03;11.03;;;;;;;5.20;100.00;102475.63;6110586;28;20033;-73
2023/12/18 08:26:40;;;;;;;21.00;9.40;;;;;;;5.20;100.00;102478.25;6102518;28;20039;-72
2023/12/18 08:29:38;;;;;;;21.63;9.23;;;;;;;5.28;100.00;102484.03;6103504;28;20033;-72
2023/12/18 08:32:37;;;;;;;25.48;9.55;;;;;;;5.30;100.00;102477.78;6110852;28;20434;-73
2023/12/18 08:35:32;;;;;;;23.15;9.23;;;;;;;5.29;100.00;102464.69;6091852;28;20410;-73
2023/12/18 08:38:28;;;;;;;21.57;9.73;;;;;;;5.28;100.00;102452.47;6104712;28;20044;-73
2023/12/18 08:41:23;;;;;;;21.38;9.43;;;;;;;5.26;100.00;102446.44;6109772;28;20075;-73
2023/12/18 08:44:19;;;;;;;24.90;9.40;;;;;;;5.26;100.00;102449.06;6107074;28;20032;-74
2023/12/18 08:47:15;;;;;;;25.33;8.93;;;;;;;5.28;100.00;102450.69;6086689;28;20040;-74
2023/12/18 08:50:11;;;;;;;26.70;10.43;;;;;;;5.30;100.00;102456.72;6093333;28;20024;-74
2023/12/18 08:53:06;;;;;;;23.98;10.48;;;;;;;5.34;100.00;102467.97;6085321;28;20079;-73
2023/12/18 08:56:02;;;;;;;24.20;10.37;;;;;;;5.32;100.00;102468.06;6108107;28;20029;-72
2023/12/18 08:58:58;;;;;;;24.10;10.35;;;;;;;5.36;100.00;102472.25;6105478;28;20491;-73
2023/12/18 09:01:54;;;;;;;28.25;10.48;;;;;;;5.35;100.00;102462.63;6103620;28;20033;-72
2023/12/18 09:04:49;;;;;;;23.03;9.87;;;;;;;5.34;100.00;102457.44;6109002;28;20045;-75
2023/12/18 09:07:44;;;;;;;22.33;8.43;;;;;;;5.30;100.00;102432.19;6103026;28;20153;-74
2023/12/18 09:10:40;;;;;;;24.52;10.20;;;;;;;5.35;100.00;102448.66;6106305;28;20373;-73
2023/12/18 09:13:39;;;;;;;22.13;8.25;;;;;;;5.34;100.00;102441.66;6105519;28;20487;-74
2023/12/18 09:16:35;;;;;;;20.73;9.00;;;;;;;5.32;100.00;102439.13;6104988;28;20411;-74
2023/12/18 09:19:30;;;;;;;22.83;9.55;;;;;;;5.31;100.00;102429.50;6104894;28;20678;-74
2023/12/18 09:22:26;;;;;;;18.90;9.20;;;;;;;5.34;100.00;102431.16;6106046;28;20025;-73
2023/12/18 09:25:21;;;;;;;21.43;8.90;;;;;;;5.40;100.00;102431.72;6105182;28;20645;-72
2023/12/18 09:28:16;;;;;;;19.93;8.83;;;;;;;5.48;100.00;102431.38;6109341;28;20028;-72
2023/12/18 09:31:12;;;;;;;21.77;8.70;;;;;;;5.53;100.00;102436.41;6100742;28;20032;-73
2023/12/18 09:34:07;;;;;;;19.77;8.47;;;;;;;5.53;100.00;102426.75;6109115;28;20753;-73
2023/12/18 09:37:02;;;;;;;19.30;8.77;;;;;;;5.54;100.00;102428.47;6105891;28;20267;-74
2023/12/18 09:39:58;;;;;;;19.55;8.93;;;;;;;5.54;100.00;102428.47;6105674;28;20057;-73
2023/12/18 09:42:54;;;;;;;19.20;8.27;;;;;;;5.62;100.00;102425.47;6105685;28;20037;-72
2023/12/18 09:45:49;;;;;;;19.77;8.40;;;;;;;5.71;100.00;102439.03;6108091;28;20037;-73
2023/12/18 09:48:45;;;;;;;20.02;8.45;;;;;;;5.69;100.00;102433.00;6101295;28;20086;-72
2023/12/18 09:51:40;;;;;;;18.98;7.35;;;;;;;5.72;100.00;102435.47;6100045;28;20388;-73
2023/12/18 09:54:37;;;;;;;15.03;7.23;;;;;;;5.74;100.00;102436.25;6105713;28;20040;-72
2023/12/18 09:57:33;;;;;;;18.48;7.50;;;;;;;5.76;100.00;102418.59;6103158;28;20051;-74
2023/12/18 10:00:28;;;;;;;18.20;6.63;;;;;;;5.71;100.00;102404.81;6108161;28;20500;-74
2023/12/18 10:03:24;;;;;;;14.55;6.30;;;;;;;5.70;100.00;102416.28;6099970;28;20030;-73
2023/12/18 10:06:19;;;;;;;16.23;6.53;;;;;;;5.81;100.00;102427.16;6099251;28;20071;-74
2023/12/18 10:09:15;;;;;;;16.77;7.40;;;;;;;5.79;100.00;102407.94;6104540;28;20031;-74
2023/12/18 10:12:13;;;;;;;15.05;6.35;;;;;;;5.83;100.00;102398.97;6091396;28;20033;-73
2023/12/18 10:15:09;;;;;;;14.13;6.30;;;;;;;5.80;100.00;102403.53;6107497;28;20028;-72
2023/12/18 10:18:05;;;;;;;16.58;6.28;;;;;;;5.73;100.00;102407.38;6101703;28;20063;-74
2023/12/18 10:21:00;;;;;;;14.65;6.13;;;;;;;5.77;100.00;102412.41;6107652;28;20032;-73
2023/12/18 10:23:56;;;;;;;15.27;6.23;;;;;;;5.79;100.00;102400.03;6103435;28;20037;-74
2023/12/18 10:26:51;;;;;;;13.03;5.90;;;;;;;5.83;100.00;102391.06;6102870;28;20104;-73
2023/12/18 10:29:47;;;;;;;17.20;5.75;;;;;;;5.81;100.00;102379.78;6101741;28;20068;-73
2023/12/18 10:32:42;;;;;;;14.53;6.53;;;;;;;5.87;100.00;102395.28;6100727;28;20036;-74
2023/12/18 10:35:38;;;;;;;14.57;6.45;;;;;;;5.87;100.00;102390.03;6103692;28;20030;-73
2023/12/18 10:38:36;;;;;;;12.20;5.28;;;;;;;5.86;100.00;102380.44;6102018;28;20110;-74
2023/12/18 10:41:34;;;;;;;11.95;5.72;;;;;;;5.84;100.00;102371.69;6105776;28;20040;-73
2023/12/18 10:44:32;;;;;;;12.80;5.75;;;;;;;5.78;100.00;102377.28;6100737;28;20025;-73
2023/12/18 10:47:27;;;;;;;15.68;5.93;;;;;;;5.86;100.00;102388.34;6104247;28;20090;-72
2023/12/18 10:50:23;;;;;;;12.20;5.25;;;;;;;5.91;100.00;102386.31;6103343;28;20029;-73
2023/12/18 10:53:20;;;;;;;16.40;6.57;;;;;;;5.87;100.00;102378.66;6101647;28;20041;-73
2023/12/18 10:56:17;;;;;;;13.73;5.90;;;;;;;5.86;100.00;102372.53;6096111;28;20086;-73
2023/12/18 10:59:13;;;;;;;13.20;6.43;;;;;;;5.86;100.00;102359.38;6097032;28;20039;-74
2023/12/18 11:02:08;;;;;;;11.13;5.68;;;;;;;6.04;100.00;102369.91;6098478;28;20037;-74
2023/12/18 11:05:06;;;;;;;9.75;4.75;;;;;;;6.10;100.00;102357.31;6102036;28;20163;-73
2023/12/18 11:08:02;;;;;;;12.13;5.43;;;;;;;6.16;100.00;102345.59;6098620;28;20033;-72
2023/12/18 11:10:59;;;;;;;14.60;5.43;;;;;;;6.17;100.00;102352.59;6083046;28;20280;-73
2023/12/18 11:14:23;;;;;;;13.15;5.43;;;;;;;6.24;100.00;102351.34;6105432;28;20056;-72
2023/12/18 11:17:55;;;;;;;9.95;5.15;;;;;;;6.27;100.00;102346.78;6101191;28;20047;-73
2023/12/18 11:20:52;;;;;;;13.20;5.32;;;;;;;6.36;100.00;102342.81;6096653;28;20041;-73
2023/12/18 11:23:50;;;;;;;11.00;5.32;;;;;;;6.43;100.00;102350.31;6102448;28;20391;-72
2023/12/18 11:26:46;;;;;;;13.00;5.22;;;;;;;6.40;100.00;102341.72;6097676;28;20541;-73
2023/12/18 11:29:47;;;;;;;12.38;5.32;;;;;;;6.47;100.00;102340.44;6101272;28;20067;-74
2023/12/18 11:32:45;;;;;;;13.25;5.53;;;;;;;6.38;100.00;102319.88;6105168;28;20052;-74
2023/12/18 11:35:45;;;;;;;12.85;5.78;;;;;;;6.38;100.00;102330.41;6103894;28;20361;-73
2023/12/18 11:38:40;;;;;;;12.95;5.75;;;;;;;6.33;100.00;102329.81;6100187;28;20036;-73
2023/12/18 11:41:47;;;;;;;18.83;6.55;;;;;;;6.37;100.00;102333.97;6106917;28;20040;-74
2023/12/18 11:44:42;;;;;;;16.38;5.30;;;;;;;6.37;100.00;102328.69;6098986;28;20025;-73
2023/12/18 11:47:39;;;;;;;10.82;5.07;;;;;;;6.32;100.00;102328.09;6102452;28;20043;-74
2023/12/18 11:50:37;;;;;;;12.82;5.20;;;;;;;6.41;100.00;102322.34;6105508;28;20035;-73
2023/12/18 11:53:34;;;;;;;12.93;5.13;;;;;;;6.40;100.00;102310.09;6109150;28;20021;-72
2023/12/18 11:56:40;;;;;;;11.45;5.05;;;;;;;6.49;100.00;102320.16;6106836;28;20033;-73
2023/12/18 11:59:35;;;;;;;8.60;4.38;;;;;;;6.46;100.00;102305.38;6082387;28;20072;-72
2023/12/18 12:02:31;;;;;;;8.40;4.47;;;;;;;6.44;100.00;102290.56;6101495;28;20047;-72
2023/12/18 12:10:39;;;;;;;11.00;4.43;;;;;;;6.42;100.00;102280.09;6038671;28;20038;-72
2023/12/18 12:13:35;;;;;;;10.90;4.60;;;;;;;6.36;100.00;102259.34;6041706;28;20479;-73
2023/12/18 12:16:31;;;;;;;9.63;4.57;;;;;;;6.50;100.00;102274.41;6105039;28;20038;-72
2023/12/18 12:19:34;;;;;;;10.30;4.28;;;;;;;6.40;100.00;102252.13;6097237;28;20217;-72
2023/12/18 12:22:29;;;;;;;8.63;4.32;;;;;;;6.46;100.00;102262.34;6099365;28;20441;-74
2023/12/18 12:25:25;;;;;;;9.68;4.18;;;;;;;6.48;100.00;102273.66;6103622;28;20029;-73
2023/12/18 12:28:20;;;;;;;10.35;4.18;;;;;;;6.46;100.00;102257.09;6097356;28;20029;-74
2023/12/18 12:31:17;;;;;;;10.27;4.35;;;;;;;6.47;100.00;102258.75;6096970;28;20025;-73
2023/12/18 12:34:14;;;;;;;9.43;4.70;;;;;;;6.49;100.00;102270.09;6095907;28;20112;-74
2023/12/18 12:37:10;;;;;;;9.80;4.75;;;;;;;6.45;100.00;102263.28;6104581;28;20392;-71
2023/12/18 12:40:06;;;;;;;13.82;5.50;;;;;;;6.47;100.00;102269.31;6103447;28;21537;-72
2023/12/18 12:43:01;;;;;;;9.70;4.00;;;;;;;6.49;100.00;102260.41;6104264;28;20032;-72
2023/12/18 12:45:57;;;;;;;9.43;4.33;;;;;;;6.48;100.00;102253.44;6100007;28;20104;-72
2023/12/18 12:48:54;;;;;;;8.88;4.15;;;;;;;6.55;100.00;102260.06;6103291;28;20273;-74
2023/12/18 12:51:50;;;;;;;11.00;4.68;;;;;;;6.53;100.00;102258.44;6104147;28;20103;-73
2023/12/18 12:54:51;;;;;;;9.70;5.00;;;;;;;6.53;100.00;102242.63;6102956;28;20140;-74
2023/12/18 12:57:46;;;;;;;11.02;4.38;;;;;;;6.51;100.00;102239.25;6074950;28;20033;-73
2023/12/18 13:00:41;;;;;;;9.33;4.17;;;;;;;6.55;100.00;102251.31;6097413;28;20032;-72
2023/12/18 13:03:37;;;;;;;9.93;5.10;;;;;;;6.57;100.00;102260.00;6098379;28;20036;-72
2023/12/18 13:06:32;;;;;;;10.57;4.70;;;;;;;6.56;100.00;102268.81;6101695;28;20372;-72
2023/12/18 13:09:28;;;;;;;10.93;5.10;;;;;;;6.52;100.00;102272.56;6103414;28;20475;-73
2023/12/18 13:12:23;;;;;;;13.55;5.38;;;;;;;6.49;100.00;102259.56;6094419;28;20059;-74
2023/12/18 13:15:19;;;;;;;12.30;4.93;;;;;;;6.39;100.00;102251.28;6090968;28;20029;-74
2023/12/18 13:18:17;;;;;;;11.75;4.55;;;;;;;6.53;100.00;102258.44;6100152;28;20483;-73
2023/12/18 13:21:13;;;;;;;11.68;5.10;;;;;;;6.53;100.00;102253.19;6099097;28;20484;-73
2023/12/18 13:24:08;;;;;;;10.18;4.47;;;;;;;6.55;100.00;102256.56;6089827;28;20035;-74
2023/12/18 13:27:03;;;;;;;12.20;5.83;;;;;;;6.57;100.00;102255.59;6088915;28;20028;-73
2023/12/18 13:29:59;;;;;;;13.03;4.57;;;;;;;6.51;100.00;102244.50;6108825;28;20270;-73
2023/12/18 13:32:55;;;;;;;12.43;4.90;;;;;;;6.53;100.00;102238.22;6111017;28;20686;-72
2023/12/18 13:35:51;;;;;;;11.57;5.13;;;;;;;6.58;100.00;102245.88;6106293;28;20559;-73